sensor_id;sensor_type;location;lat;lon;timestamp;P1;durP1;ratioP1;P2;durP2;ratioP2
19255;SDS011;9762;52.490;13.410;2023-11-19T00:02:02;7.33;;;6.63;;
19255;SDS011;9762;52.490;13.410;2023-11-19T00:04:27;7.23;;;6.63;;
19255;SDS011;9762;52.490;13.410;2023-11-19T00:06:53;8.00;;;7.20;;
19255;SDS011;9762;52.490;13.410;2023-11-19T00:09:18;7.33;;;6.67;;
19255;SDS011;9762;52.490;13.410;2023-11-19T00:11:44;7.40;;;6.80;;
19255;SDS011;9762;52.490;13.410;2023-11-19T00:14:10;7.67;;;6.37;;
19255;SDS011;9762;52.490;13.410;2023-11-19T00:16:35;7.53;;;6.53;;
19255;SDS011;9762;52.490;13.410;2023-11-19T00:19:01;7.30;;;6.70;;
19255;SDS011;9762;52.490;13.410;2023-11-19T00:21:26;5.73;;;5.20;;
19255;SDS011;9762;52.490;13.410;2023-11-19T00:23:53;5.17;;;4.87;;
19255;SDS011;9762;52.490;13.410;2023-11-19T00:26:19;5.63;;;5.27;;
19255;SDS011;9762;52.490;13.410;2023-11-19T00:28:45;5.33;;;4.93;;
19255;SDS011;9762;52.490;13.410;2023-11-19T00:31:12;5.97;;;5.47;;
19255;SDS011;9762;52.490;13.410;2023-11-19T00:33:38;6.23;;;5.80;;
19255;SDS011;9762;52.490;13.410;2023-11-19T00:36:04;5.87;;;5.47;;
19255;SDS011;9762;52.490;13.410;2023-11-19T00:38:31;5.23;;;4.93;;
19255;SDS011;9762;52.490;13.410;2023-11-19T00:40:56;7.23;;;5.87;;
19255;SDS011;9762;52.490;13.410;2023-11-19T00:43:22;6.63;;;6.03;;
19255;SDS011;9762;52.490;13.410;2023-11-19T00:45:48;7.17;;;6.50;;
19255;SDS011;9762;52.490;13.410;2023-11-19T00:48:16;6.70;;;5.93;;
19255;SDS011;9762;52.490;13.410;2023-11-19T00:50:42;6.77;;;6.27;;
19255;SDS011;9762;52.490;13.410;2023-11-19T00:53:09;7.33;;;5.57;;
19255;SDS011;9762;52.490;13.410;2023-11-19T00:55:35;5.70;;;5.30;;
19255;SDS011;9762;52.490;13.410;2023-11-19T00:58:00;5.23;;;4.83;;
19255;SDS011;9762;52.490;13.410;2023-11-19T01:00:26;5.80;;;5.10;;
19255;SDS011;9762;52.490;13.410;2023-11-19T01:02:52;5.40;;;5.00;;
19255;SDS011;9762;52.490;13.410;2023-11-19T01:05:18;6.10;;;5.50;;
19255;SDS011;9762;52.490;13.410;2023-11-19T01:07:47;8.03;;;6.03;;
19255;SDS011;9762;52.490;13.410;2023-11-19T01:10:13;5.93;;;5.43;;
19255;SDS011;9762;52.490;13.410;2023-11-19T01:12:40;5.77;;;5.27;;
19255;SDS011;9762;52.490;13.410;2023-11-19T01:15:07;5.73;;;5.33;;
19255;SDS011;9762;52.490;13.410;2023-11-19T01:17:33;6.73;;;6.07;;
19255;SDS011;9762;52.490;13.410;2023-11-19T01:19:58;6.03;;;5.63;;
19255;SDS011;9762;52.490;13.410;2023-11-19T01:22:24;5.70;;;5.20;;
19255;SDS011;9762;52.490;13.410;2023-11-19T01:24:50;9.67;;;6.40;;
19255;SDS011;9762;52.490;13.410;2023-11-19T01:27:17;5.40;;;4.90;;
19255;SDS011;9762;52.490;13.410;2023-11-19T01:29:42;5.63;;;5.17;;
19255;SDS011;9762;52.490;13.410;2023-11-19T01:32:08;5.80;;;5.27;;
19255;SDS011;9762;52.490;13.410;2023-11-19T01:34:34;7.07;;;6.30;;
19255;SDS011;9762;52.490;13.410;2023-11-19T01:37:00;5.83;;;5.37;;
19255;SDS011;9762;52.490;13.410;2023-11-19T01:39:26;5.70;;;5.30;;
19255;SDS011;9762;52.490;13.410;2023-11-19T01:41:52;6.53;;;5.70;;
19255;SDS011;9762;52.490;13.410;2023-11-19T01:44:19;7.40;;;5.40;;
19255;SDS011;9762;52.490;13.410;2023-11-19T01:46:45;6.40;;;5.77;;
19255;SDS011;9762;52.490;13.410;2023-11-19T01:49:15;5.53;;;5.13;;
19255;SDS011;9762;52.490;13.410;2023-11-19T01:51:42;5.53;;;5.13;;
19255;SDS011;9762;52.490;13.410;2023-11-19T01:54:08;5.90;;;5.40;;
19255;SDS011;9762;52.490;13.410;2023-11-19T01:56:35;6.10;;;5.53;;
19255;SDS011;9762;52.490;13.410;2023-11-19T01:59:03;8.33;;;6.00;;
19255;SDS011;9762;52.490;13.410;2023-11-19T02:01:29;5.37;;;4.97;;
19255;SDS011;9762;52.490;13.410;2023-11-19T02:03:55;5.93;;;5.43;;
19255;SDS011;9762;52.490;13.410;2023-11-19T02:06:21;5.93;;;5.33;;
19255;SDS011;9762;52.490;13.410;2023-11-19T02:08:46;6.20;;;5.30;;
19255;SDS011;9762;52.490;13.410;2023-11-19T02:11:12;5.77;;;5.37;;
19255;SDS011;9762;52.490;13.410;2023-11-19T02:13:38;6.47;;;5.90;;
19255;SDS011;9762;52.490;13.410;2023-11-19T02:16:06;6.57;;;5.80;;
19255;SDS011;9762;52.490;13.410;2023-11-19T02:18:33;6.40;;;5.57;;
19255;SDS011;9762;52.490;13.410;2023-11-19T02:20:59;5.17;;;4.87;;
19255;SDS011;9762;52.490;13.410;2023-11-19T02:23:28;6.03;;;5.43;;
19255;SDS011;9762;52.490;13.410;2023-11-19T02:25:59;5.43;;;4.97;;
19255;SDS011;9762;52.490;13.410;2023-11-19T02:28:30;6.47;;;4.73;;
19255;SDS011;9762;52.490;13.410;2023-11-19T02:30:57;5.93;;;5.30;;
19255;SDS011;9762;52.490;13.410;2023-11-19T02:33:23;5.97;;;5.57;;
19255;SDS011;9762;52.490;13.410;2023-11-19T02:35:49;6.33;;;5.67;;
19255;SDS011;9762;52.490;13.410;2023-11-19T02:38:16;5.40;;;5.07;;
19255;SDS011;9762;52.490;13.410;2023-11-19T02:40:42;5.70;;;5.30;;
19255;SDS011;9762;52.490;13.410;2023-11-19T02:43:07;5.20;;;4.80;;
19255;SDS011;9762;52.490;13.410;2023-11-19T02:45:33;5.40;;;5.00;;
19255;SDS011;9762;52.490;13.410;2023-11-19T02:47:59;4.90;;;4.50;;
19255;SDS011;9762;52.490;13.410;2023-11-19T02:50:26;4.73;;;4.30;;
19255;SDS011;9762;52.490;13.410;2023-11-19T02:52:53;5.40;;;5.00;;
19255;SDS011;9762;52.490;13.410;2023-11-19T02:55:21;5.30;;;4.90;;
19255;SDS011;9762;52.490;13.410;2023-11-19T02:57:48;4.80;;;4.40;;
19255;SDS011;9762;52.490;13.410;2023-11-19T03:02:41;4.73;;;4.43;;
19255;SDS011;9762;52.490;13.410;2023-11-19T03:05:11;4.37;;;4.07;;
19255;SDS011;9762;52.490;13.410;2023-11-19T03:07:39;3.80;;;3.70;;
19255;SDS011;9762;52.490;13.410;2023-11-19T03:10:09;4.90;;;4.20;;
19255;SDS011;9762;52.490;13.410;2023-11-19T03:12:41;4.13;;;3.80;;
19255;SDS011;9762;52.490;13.410;2023-11-19T03:15:07;3.70;;;3.40;;
19255;SDS011;9762;52.490;13.410;2023-11-19T03:17:42;4.20;;;3.90;;
19255;SDS011;9762;52.490;13.410;2023-11-19T03:20:09;4.40;;;4.10;;
19255;SDS011;9762;52.490;13.410;2023-11-19T03:22:39;4.33;;;3.97;;
19255;SDS011;9762;52.490;13.410;2023-11-19T03:25:06;4.40;;;4.17;;
19255;SDS011;9762;52.490;13.410;2023-11-19T03:27:34;4.17;;;3.97;;
19255;SDS011;9762;52.490;13.410;2023-11-19T03:30:01;4.37;;;4.10;;
19255;SDS011;9762;52.490;13.410;2023-11-19T03:32:29;4.70;;;4.30;;
19255;SDS011;9762;52.490;13.410;2023-11-19T03:34:56;4.63;;;4.23;;
19255;SDS011;9762;52.490;13.410;2023-11-19T03:37:22;4.70;;;4.40;;
19255;SDS011;9762;52.490;13.410;2023-11-19T03:39:49;4.53;;;4.20;;
19255;SDS011;9762;52.490;13.410;2023-11-19T03:42:14;4.37;;;4.00;;
19255;SDS011;9762;52.490;13.410;2023-11-19T03:44:40;5.67;;;5.10;;
19255;SDS011;9762;52.490;13.410;2023-11-19T03:47:05;4.73;;;4.43;;
19255;SDS011;9762;52.490;13.410;2023-11-19T03:49:31;5.13;;;4.73;;
19255;SDS011;9762;52.490;13.410;2023-11-19T03:51:57;5.30;;;4.80;;
19255;SDS011;9762;52.490;13.410;2023-11-19T03:54:23;5.30;;;4.80;;
19255;SDS011;9762;52.490;13.410;2023-11-19T03:56:48;5.30;;;4.70;;
19255;SDS011;9762;52.490;13.410;2023-11-19T03:59:14;4.87;;;4.47;;
19255;SDS011;9762;52.490;13.410;2023-11-19T04:01:40;5.87;;;4.23;;
19255;SDS011;9762;52.490;13.410;2023-11-19T04:04:06;5.30;;;4.90;;
19255;SDS011;9762;52.490;13.410;2023-11-19T04:06:32;5.80;;;4.50;;
19255;SDS011;9762;52.490;13.410;2023-11-19T04:08:57;4.93;;;4.53;;
19255;SDS011;9762;52.490;13.410;2023-11-19T04:11:23;5.50;;;4.93;;
19255;SDS011;9762;52.490;13.410;2023-11-19T04:13:49;4.43;;;4.13;;
19255;SDS011;9762;52.490;13.410;2023-11-19T04:16:14;7.17;;;4.97;;
19255;SDS011;9762;52.490;13.410;2023-11-19T04:18:40;5.00;;;4.60;;
19255;SDS011;9762;52.490;13.410;2023-11-19T04:21:06;5.43;;;5.00;;
19255;SDS011;9762;52.490;13.410;2023-11-19T04:23:32;5.00;;;4.60;;
19255;SDS011;9762;52.490;13.410;2023-11-19T04:25:58;4.93;;;4.60;;
19255;SDS011;9762;52.490;13.410;2023-11-19T04:28:26;5.00;;;4.60;;
19255;SDS011;9762;52.490;13.410;2023-11-19T04:30:52;5.13;;;4.70;;
19255;SDS011;9762;52.490;13.410;2023-11-19T04:33:18;5.37;;;4.83;;
19255;SDS011;9762;52.490;13.410;2023-11-19T04:35:44;5.20;;;4.70;;
19255;SDS011;9762;52.490;13.410;2023-11-19T04:38:09;5.13;;;4.47;;
19255;SDS011;9762;52.490;13.410;2023-11-19T04:40:35;4.37;;;4.07;;
19255;SDS011;9762;52.490;13.410;2023-11-19T04:43:01;4.50;;;4.20;;
19255;SDS011;9762;52.490;13.410;2023-11-19T04:45:27;5.03;;;4.63;;
19255;SDS011;9762;52.490;13.410;2023-11-19T04:47:52;4.33;;;4.10;;
19255;SDS011;9762;52.490;13.410;2023-11-19T04:50:18;8.43;;;4.07;;
19255;SDS011;9762;52.490;13.410;2023-11-19T04:52:44;4.43;;;4.03;;
19255;SDS011;9762;52.490;13.410;2023-11-19T04:55:10;4.50;;;4.20;;
19255;SDS011;9762;52.490;13.410;2023-11-19T04:57:37;4.77;;;4.37;;
19255;SDS011;9762;52.490;13.410;2023-11-19T05:00:03;5.00;;;4.70;;
19255;SDS011;9762;52.490;13.410;2023-11-19T05:02:30;4.80;;;4.40;;
19255;SDS011;9762;52.490;13.410;2023-11-19T05:04:55;4.90;;;4.57;;
19255;SDS011;9762;52.490;13.410;2023-11-19T05:07:21;5.23;;;4.73;;
19255;SDS011;9762;52.490;13.410;2023-11-19T05:09:47;5.03;;;4.63;;
19255;SDS011;9762;52.490;13.410;2023-11-19T05:12:12;5.17;;;4.80;;
19255;SDS011;9762;52.490;13.410;2023-11-19T05:14:38;6.10;;;5.10;;
19255;SDS011;9762;52.490;13.410;2023-11-19T05:17:04;4.70;;;4.40;;
19255;SDS011;9762;52.490;13.410;2023-11-19T05:19:29;5.90;;;5.37;;
19255;SDS011;9762;52.490;13.410;2023-11-19T05:21:55;5.73;;;5.23;;
19255;SDS011;9762;52.490;13.410;2023-11-19T05:24:21;6.23;;;5.30;;
19255;SDS011;9762;52.490;13.410;2023-11-19T05:26:46;5.07;;;4.77;;
19255;SDS011;9762;52.490;13.410;2023-11-19T05:29:12;6.83;;;5.33;;
19255;SDS011;9762;52.490;13.410;2023-11-19T05:31:38;4.37;;;4.17;;
19255;SDS011;9762;52.490;13.410;2023-11-19T05:34:03;5.57;;;5.10;;
19255;SDS011;9762;52.490;13.410;2023-11-19T05:36:29;4.53;;;4.23;;
19255;SDS011;9762;52.490;13.410;2023-11-19T05:38:55;4.77;;;4.47;;
19255;SDS011;9762;52.490;13.410;2023-11-19T05:41:20;4.67;;;4.37;;
19255;SDS011;9762;52.490;13.410;2023-11-19T05:43:46;4.70;;;4.40;;
19255;SDS011;9762;52.490;13.410;2023-11-19T05:46:12;5.23;;;4.93;;
19255;SDS011;9762;52.490;13.410;2023-11-19T05:48:38;5.80;;;5.40;;
19255;SDS011;9762;52.490;13.410;2023-11-19T05:51:04;5.07;;;4.70;;
19255;SDS011;9762;52.490;13.410;2023-11-19T05:53:30;4.90;;;4.60;;
19255;SDS011;9762;52.490;13.410;2023-11-19T05:55:56;5.37;;;4.87;;
19255;SDS011;9762;52.490;13.410;2023-11-19T05:58:25;4.83;;;4.43;;
19255;SDS011;9762;52.490;13.410;2023-11-19T06:00:56;4.60;;;4.40;;
19255;SDS011;9762;52.490;13.410;2023-11-19T06:03:22;4.70;;;4.40;;
19255;SDS011;9762;52.490;13.410;2023-11-19T06:05:51;5.50;;;5.00;;
19255;SDS011;9762;52.490;13.410;2023-11-19T06:08:17;5.73;;;5.33;;
19255;SDS011;9762;52.490;13.410;2023-11-19T06:10:45;5.57;;;5.17;;
19255;SDS011;9762;52.490;13.410;2023-11-19T06:13:15;4.83;;;4.53;;
19255;SDS011;9762;52.490;13.410;2023-11-19T06:15:41;4.73;;;4.43;;
19255;SDS011;9762;52.490;13.410;2023-11-19T06:18:07;4.93;;;4.63;;
19255;SDS011;9762;52.490;13.410;2023-11-19T06:20:33;5.23;;;4.83;;
19255;SDS011;9762;52.490;13.410;2023-11-19T06:22:59;5.90;;;5.43;;
19255;SDS011;9762;52.490;13.410;2023-11-19T06:25:25;4.77;;;4.47;;
19255;SDS011;9762;52.490;13.410;2023-11-19T06:27:51;4.87;;;4.47;;
19255;SDS011;9762;52.490;13.410;2023-11-19T06:30:17;4.93;;;4.53;;
19255;SDS011;9762;52.490;13.410;2023-11-19T06:32:44;4.17;;;3.97;;
19255;SDS011;9762;52.490;13.410;2023-11-19T06:35:09;4.17;;;3.87;;
19255;SDS011;9762;52.490;13.410;2023-11-19T06:37:35;4.67;;;4.37;;
19255;SDS011;9762;52.490;13.410;2023-11-19T06:40:03;4.17;;;3.93;;
19255;SDS011;9762;52.490;13.410;2023-11-19T06:42:30;4.07;;;3.77;;
19255;SDS011;9762;52.490;13.410;2023-11-19T06:44:56;4.03;;;3.80;;
19255;SDS011;9762;52.490;13.410;2023-11-19T06:47:25;4.67;;;4.37;;
19255;SDS011;9762;52.490;13.410;2023-11-19T06:49:52;3.67;;;3.47;;
19255;SDS011;9762;52.490;13.410;2023-11-19T06:52:18;5.40;;;4.60;;
19255;SDS011;9762;52.490;13.410;2023-11-19T06:54:44;4.60;;;4.27;;
19255;SDS011;9762;52.490;13.410;2023-11-19T06:57:10;4.37;;;4.13;;
19255;SDS011;9762;52.490;13.410;2023-11-19T06:59:36;4.00;;;3.70;;
19255;SDS011;9762;52.490;13.410;2023-11-19T07:02:02;3.80;;;3.60;;
19255;SDS011;9762;52.490;13.410;2023-11-19T07:04:29;4.50;;;4.20;;
19255;SDS011;9762;52.490;13.410;2023-11-19T07:06:55;4.40;;;3.87;;
19255;SDS011;9762;52.490;13.410;2023-11-19T07:09:21;4.00;;;3.70;;
19255;SDS011;9762;52.490;13.410;2023-11-19T07:11:48;3.80;;;3.50;;
19255;SDS011;9762;52.490;13.410;2023-11-19T07:14:16;4.00;;;3.80;;
19255;SDS011;9762;52.490;13.410;2023-11-19T07:16:43;3.47;;;3.27;;
19255;SDS011;9762;52.490;13.410;2023-11-19T07:19:08;3.33;;;3.13;;
19255;SDS011;9762;52.490;13.410;2023-11-19T07:21:34;3.40;;;3.20;;
19255;SDS011;9762;52.490;13.410;2023-11-19T07:24:03;3.77;;;3.53;;
19255;SDS011;9762;52.490;13.410;2023-11-19T07:26:30;3.77;;;3.57;;
19255;SDS011;9762;52.490;13.410;2023-11-19T07:28:55;3.23;;;3.13;;
19255;SDS011;9762;52.490;13.410;2023-11-19T07:31:21;3.70;;;3.50;;
19255;SDS011;9762;52.490;13.410;2023-11-19T07:33:46;3.73;;;3.53;;
19255;SDS011;9762;52.490;13.410;2023-11-19T07:36:15;3.33;;;3.13;;
19255;SDS011;9762;52.490;13.410;2023-11-19T07:38:41;3.83;;;3.63;;
19255;SDS011;9762;52.490;13.410;2023-11-19T07:41:07;3.10;;;3.00;;
19255;SDS011;9762;52.490;13.410;2023-11-19T07:43:37;3.10;;;3.00;;
19255;SDS011;9762;52.490;13.410;2023-11-19T07:46:04;2.77;;;2.63;;
19255;SDS011;9762;52.490;13.410;2023-11-19T07:48:32;3.10;;;3.00;;
19255;SDS011;9762;52.490;13.410;2023-11-19T07:50:59;3.40;;;3.27;;
19255;SDS011;9762;52.490;13.410;2023-11-19T07:53:26;3.40;;;3.30;;
19255;SDS011;9762;52.490;13.410;2023-11-19T07:55:51;3.50;;;3.30;;
19255;SDS011;9762;52.490;13.410;2023-11-19T07:58:17;5.23;;;3.53;;
19255;SDS011;9762;52.490;13.410;2023-11-19T08:00:43;3.93;;;3.63;;
19255;SDS011;9762;52.490;13.410;2023-11-19T08:03:08;3.83;;;3.63;;
19255;SDS011;9762;52.490;13.410;2023-11-19T08:05:34;3.70;;;3.40;;
19255;SDS011;9762;52.490;13.410;2023-11-19T08:08:00;6.13;;;3.47;;
19255;SDS011;9762;52.490;13.410;2023-11-19T08:10:26;3.63;;;3.33;;
19255;SDS011;9762;52.490;13.410;2023-11-19T08:12:51;3.53;;;3.33;;
19255;SDS011;9762;52.490;13.410;2023-11-19T08:15:17;3.37;;;3.17;;
19255;SDS011;9762;52.490;13.410;2023-11-19T08:17:43;3.20;;;3.03;;
19255;SDS011;9762;52.490;13.410;2023-11-19T08:20:09;3.13;;;2.93;;
19255;SDS011;9762;52.490;13.410;2023-11-19T08:22:38;3.47;;;3.27;;
19255;SDS011;9762;52.490;13.410;2023-11-19T08:25:07;3.53;;;3.33;;
19255;SDS011;9762;52.490;13.410;2023-11-19T08:27:33;3.43;;;3.23;;
19255;SDS011;9762;52.490;13.410;2023-11-19T08:29:58;3.40;;;3.20;;
19255;SDS011;9762;52.490;13.410;2023-11-19T08:32:25;3.37;;;3.10;;
19255;SDS011;9762;52.490;13.410;2023-11-19T08:34:51;3.03;;;2.90;;
19255;SDS011;9762;52.490;13.410;2023-11-19T08:37:17;3.70;;;2.90;;
19255;SDS011;9762;52.490;13.410;2023-11-19T08:39:45;2.70;;;2.60;;
19255;SDS011;9762;52.490;13.410;2023-11-19T08:42:15;3.23;;;3.10;;
19255;SDS011;9762;52.490;13.410;2023-11-19T08:44:42;2.87;;;2.77;;
19255;SDS011;9762;52.490;13.410;2023-11-19T08:47:09;3.60;;;3.30;;
19255;SDS011;9762;52.490;13.410;2023-11-19T08:49:36;3.27;;;3.07;;
19255;SDS011;9762;52.490;13.410;2023-11-19T08:52:02;3.03;;;2.83;;
19255;SDS011;9762;52.490;13.410;2023-11-19T08:54:27;3.10;;;3.00;;
19255;SDS011;9762;52.490;13.410;2023-11-19T08:56:53;2.80;;;2.70;;
19255;SDS011;9762;52.490;13.410;2023-11-19T08:59:18;3.20;;;3.10;;
19255;SDS011;9762;52.490;13.410;2023-11-19T09:01:44;2.70;;;2.50;;
19255;SDS011;9762;52.490;13.410;2023-11-19T09:04:10;2.70;;;2.60;;
19255;SDS011;9762;52.490;13.410;2023-11-19T09:06:36;2.97;;;2.77;;
19255;SDS011;9762;52.490;13.410;2023-11-19T09:09:02;3.00;;;2.90;;
19255;SDS011;9762;52.490;13.410;2023-11-19T09:11:28;2.83;;;2.53;;
19255;SDS011;9762;52.490;13.410;2023-11-19T09:13:54;3.80;;;2.40;;
19255;SDS011;9762;52.490;13.410;2023-11-19T09:16:20;2.63;;;2.53;;
19255;SDS011;9762;52.490;13.410;2023-11-19T09:18:46;2.43;;;2.33;;
19255;SDS011;9762;52.490;13.410;2023-11-19T09:21:12;2.60;;;2.50;;
19255;SDS011;9762;52.490;13.410;2023-11-19T09:23:38;3.10;;;3.00;;
19255;SDS011;9762;52.490;13.410;2023-11-19T09:26:10;4.73;;;3.00;;
19255;SDS011;9762;52.490;13.410;2023-11-19T09:28:36;4.60;;;2.97;;
19255;SDS011;9762;52.490;13.410;2023-11-19T09:31:01;5.73;;;2.97;;
19255;SDS011;9762;52.490;13.410;2023-11-19T09:33:29;3.20;;;2.90;;
19255;SDS011;9762;52.490;13.410;2023-11-19T09:35:55;3.87;;;2.33;;
19255;SDS011;9762;52.490;13.410;2023-11-19T09:38:22;6.47;;;2.63;;
19255;SDS011;9762;52.490;13.410;2023-11-19T09:40:47;5.30;;;3.10;;
19255;SDS011;9762;52.490;13.410;2023-11-19T09:43:13;2.83;;;2.67;;
19255;SDS011;9762;52.490;13.410;2023-11-19T09:45:47;2.33;;;2.23;;
19255;SDS011;9762;52.490;13.410;2023-11-19T09:48:17;2.70;;;2.50;;
19255;SDS011;9762;52.490;13.410;2023-11-19T09:50:47;3.23;;;2.60;;
19255;SDS011;9762;52.490;13.410;2023-11-19T09:53:13;2.53;;;2.43;;
19255;SDS011;9762;52.490;13.410;2023-11-19T09:55:40;3.80;;;2.43;;
19255;SDS011;9762;52.490;13.410;2023-11-19T09:58:07;3.40;;;2.90;;
19255;SDS011;9762;52.490;13.410;2023-11-19T10:00:33;2.73;;;2.53;;
19255;SDS011;9762;52.490;13.410;2023-11-19T10:02:59;3.13;;;2.93;;
19255;SDS011;9762;52.490;13.410;2023-11-19T10:05:25;6.13;;;2.43;;
19255;SDS011;9762;52.490;13.410;2023-11-19T10:07:54;2.80;;;2.60;;
19255;SDS011;9762;52.490;13.410;2023-11-19T10:10:20;3.40;;;2.10;;
19255;SDS011;9762;52.490;13.410;2023-11-19T10:12:46;4.27;;;2.80;;
19255;SDS011;9762;52.490;13.410;2023-11-19T10:15:17;2.40;;;2.20;;
19255;SDS011;9762;52.490;13.410;2023-11-19T10:17:46;5.60;;;2.47;;
19255;SDS011;9762;52.490;13.410;2023-11-19T10:20:12;5.60;;;2.57;;
19255;SDS011;9762;52.490;13.410;2023-11-19T10:22:37;1.83;;;1.73;;
19255;SDS011;9762;52.490;13.410;2023-11-19T10:25:03;5.47;;;2.50;;
19255;SDS011;9762;52.490;13.410;2023-11-19T10:27:30;2.40;;;2.20;;
19255;SDS011;9762;52.490;13.410;2023-11-19T10:29:59;5.63;;;4.20;;
19255;SDS011;9762;52.490;13.410;2023-11-19T10:32:25;4.13;;;3.50;;
19255;SDS011;9762;52.490;13.410;2023-11-19T10:34:50;5.80;;;2.27;;
19255;SDS011;9762;52.490;13.410;2023-11-19T10:37:28;7.40;;;2.43;;
19255;SDS011;9762;52.490;13.410;2023-11-19T10:39:56;3.23;;;1.87;;
19255;SDS011;9762;52.490;13.410;2023-11-19T10:42:22;7.27;;;2.30;;
19255;SDS011;9762;52.490;13.410;2023-11-19T10:44:48;6.00;;;2.83;;
19255;SDS011;9762;52.490;13.410;2023-11-19T10:47:14;7.23;;;2.27;;
19255;SDS011;9762;52.490;13.410;2023-11-19T10:49:43;4.37;;;2.10;;
19255;SDS011;9762;52.490;13.410;2023-11-19T10:52:10;2.13;;;1.70;;
19255;SDS011;9762;52.490;13.410;2023-11-19T10:54:40;4.63;;;2.43;;
19255;SDS011;9762;52.490;13.410;2023-11-19T10:57:09;3.07;;;2.40;;
19255;SDS011;9762;52.490;13.410;2023-11-19T10:59:39;7.07;;;2.40;;
19255;SDS011;9762;52.490;13.410;2023-11-19T11:02:08;5.27;;;2.40;;
19255;SDS011;9762;52.490;13.410;2023-11-19T11:04:36;7.67;;;2.23;;
19255;SDS011;9762;52.490;13.410;2023-11-19T11:07:05;7.73;;;2.37;;
19255;SDS011;9762;52.490;13.410;2023-11-19T11:09:32;7.87;;;2.37;;
19255;SDS011;9762;52.490;13.410;2023-11-19T11:11:58;6.97;;;3.00;;
19255;SDS011;9762;52.490;13.410;2023-11-19T11:14:25;9.67;;;2.43;;
19255;SDS011;9762;52.490;13.410;2023-11-19T11:16:52;8.07;;;2.47;;
19255;SDS011;9762;52.490;13.410;2023-11-19T11:19:18;9.10;;;2.80;;
19255;SDS011;9762;52.490;13.410;2023-11-19T11:21:46;8.07;;;2.73;;
19255;SDS011;9762;52.490;13.410;2023-11-19T11:30:05;8.17;;;2.53;;
19255;SDS011;9762;52.490;13.410;2023-11-19T11:32:45;6.00;;;2.37;;
19255;SDS011;9762;52.490;13.410;2023-11-19T11:38:11;7.97;;;2.97;;
19255;SDS011;9762;52.490;13.410;2023-11-19T11:40:40;9.37;;;3.03;;
19255;SDS011;9762;52.490;13.410;2023-11-19T11:43:30;8.60;;;2.90;;
19255;SDS011;9762;52.490;13.410;2023-11-19T11:54:09;11.57;;;3.27;;
19255;SDS011;9762;52.490;13.410;2023-11-19T11:56:58;8.50;;;3.20;;
19255;SDS011;9762;52.490;13.410;2023-11-19T11:59:31;9.80;;;3.10;;
19255;SDS011;9762;52.490;13.410;2023-11-19T12:02:07;13.97;;;3.40;;
19255;SDS011;9762;52.490;13.410;2023-11-19T12:04:34;7.87;;;3.37;;
19255;SDS011;9762;52.490;13.410;2023-11-19T12:07:04;14.13;;;3.47;;
19255;SDS011;9762;52.490;13.410;2023-11-19T12:09:40;13.10;;;3.93;;
19255;SDS011;9762;52.490;13.410;2023-11-19T12:15:21;12.73;;;3.97;;
19255;SDS011;9762;52.490;13.410;2023-11-19T12:20:02;13.60;;;4.63;;
19255;SDS011;9762;52.490;13.410;2023-11-19T12:22:40;10.77;;;4.40;;
19255;SDS011;9762;52.490;13.410;2023-11-19T12:25:07;10.67;;;3.87;;
19255;SDS011;9762;52.490;13.410;2023-11-19T12:27:34;12.37;;;3.53;;
19255;SDS011;9762;52.490;13.410;2023-11-19T12:30:03;12.53;;;4.07;;
19255;SDS011;9762;52.490;13.410;2023-11-19T12:32:43;12.93;;;4.00;;
19255;SDS011;9762;52.490;13.410;2023-11-19T12:35:09;9.63;;;3.90;;
19255;SDS011;9762;52.490;13.410;2023-11-19T12:37:42;13.97;;;3.90;;
19255;SDS011;9762;52.490;13.410;2023-11-19T12:40:12;12.57;;;4.00;;
19255;SDS011;9762;52.490;13.410;2023-11-19T12:42:42;17.27;;;4.03;;
19255;SDS011;9762;52.490;13.410;2023-11-19T12:45:09;10.03;;;3.70;;
19255;SDS011;9762;52.490;13.410;2023-11-19T12:47:36;11.80;;;3.70;;
19255;SDS011;9762;52.490;13.410;2023-11-19T12:50:02;14.90;;;4.07;;
19255;SDS011;9762;52.490;13.410;2023-11-19T12:52:29;13.90;;;4.00;;
19255;SDS011;9762;52.490;13.410;2023-11-19T12:54:55;13.23;;;4.10;;
19255;SDS011;9762;52.490;13.410;2023-11-19T12:57:35;16.90;;;4.10;;
19255;SDS011;9762;52.490;13.410;2023-11-19T13:00:03;11.40;;;3.83;;
19255;SDS011;9762;52.490;13.410;2023-11-19T13:02:49;23.47;;;4.73;;
19255;SDS011;9762;52.490;13.410;2023-11-19T13:05:27;10.60;;;4.63;;
19255;SDS011;9762;52.490;13.410;2023-11-19T13:08:02;12.33;;;4.57;;
19255;SDS011;9762;52.490;13.410;2023-11-19T13:10:32;9.97;;;4.30;;
19255;SDS011;9762;52.490;13.410;2023-11-19T13:13:07;11.67;;;4.43;;
19255;SDS011;9762;52.490;13.410;2023-11-19T13:15:34;17.90;;;4.57;;
19255;SDS011;9762;52.490;13.410;2023-11-19T13:18:00;20.53;;;5.33;;
19255;SDS011;9762;52.490;13.410;2023-11-19T13:20:27;12.93;;;3.97;;
19255;SDS011;9762;52.490;13.410;2023-11-19T13:23:00;15.93;;;4.63;;
19255;SDS011;9762;52.490;13.410;2023-11-19T13:25:28;14.13;;;4.73;;
19255;SDS011;9762;52.490;13.410;2023-11-19T13:27:54;15.83;;;4.60;;
19255;SDS011;9762;52.490;13.410;2023-11-19T13:30:21;14.07;;;4.03;;
19255;SDS011;9762;52.490;13.410;2023-11-19T13:32:47;14.70;;;4.20;;
19255;SDS011;9762;52.490;13.410;2023-11-19T13:35:14;14.77;;;4.37;;
19255;SDS011;9762;52.490;13.410;2023-11-19T13:37:40;17.03;;;4.70;;
19255;SDS011;9762;52.490;13.410;2023-11-19T13:40:06;19.07;;;4.90;;
19255;SDS011;9762;52.490;13.410;2023-11-19T13:42:34;16.47;;;4.73;;
19255;SDS011;9762;52.490;13.410;2023-11-19T13:45:01;16.23;;;4.47;;
19255;SDS011;9762;52.490;13.410;2023-11-19T13:47:28;14.83;;;5.17;;
19255;SDS011;9762;52.490;13.410;2023-11-19T13:49:53;11.37;;;4.10;;
19255;SDS011;9762;52.490;13.410;2023-11-19T13:52:19;16.77;;;4.43;;
19255;SDS011;9762;52.490;13.410;2023-11-19T13:54:45;16.77;;;4.37;;
19255;SDS011;9762;52.490;13.410;2023-11-19T13:57:10;17.27;;;4.77;;
19255;SDS011;9762;52.490;13.410;2023-11-19T13:59:39;12.80;;;4.53;;
19255;SDS011;9762;52.490;13.410;2023-11-19T14:02:05;14.47;;;4.40;;
19255;SDS011;9762;52.490;13.410;2023-11-19T14:04:32;16.87;;;4.60;;
19255;SDS011;9762;52.490;13.410;2023-11-19T14:06:58;16.07;;;4.83;;
19255;SDS011;9762;52.490;13.410;2023-11-19T14:09:24;17.53;;;5.10;;
19255;SDS011;9762;52.490;13.410;2023-11-19T14:11:49;18.03;;;4.80;;
19255;SDS011;9762;52.490;13.410;2023-11-19T14:14:16;18.93;;;5.07;;
19255;SDS011;9762;52.490;13.410;2023-11-19T14:16:42;17.10;;;4.53;;
19255;SDS011;9762;52.490;13.410;2023-11-19T14:19:07;17.67;;;4.90;;
19255;SDS011;9762;52.490;13.410;2023-11-19T14:21:33;17.13;;;4.87;;
19255;SDS011;9762;52.490;13.410;2023-11-19T14:23:59;16.40;;;4.87;;
19255;SDS011;9762;52.490;13.410;2023-11-19T14:26:24;18.07;;;4.70;;
19255;SDS011;9762;52.490;13.410;2023-11-19T14:28:50;14.97;;;4.47;;
19255;SDS011;9762;52.490;13.410;2023-11-19T14:31:16;16.67;;;5.37;;
19255;SDS011;9762;52.490;13.410;2023-11-19T14:33:42;22.33;;;5.27;;
19255;SDS011;9762;52.490;13.410;2023-11-19T14:36:07;20.13;;;5.43;;
19255;SDS011;9762;52.490;13.410;2023-11-19T14:38:33;15.00;;;4.23;;
19255;SDS011;9762;52.490;13.410;2023-11-19T14:40:59;17.83;;;5.67;;
19255;SDS011;9762;52.490;13.410;2023-11-19T14:43:25;16.30;;;4.80;;
19255;SDS011;9762;52.490;13.410;2023-11-19T14:45:51;20.23;;;5.13;;
19255;SDS011;9762;52.490;13.410;2023-11-19T14:48:17;17.17;;;4.90;;
19255;SDS011;9762;52.490;13.410;2023-11-19T14:50:42;19.27;;;5.10;;
19255;SDS011;9762;52.490;13.410;2023-11-19T14:53:09;17.97;;;5.30;;
19255;SDS011;9762;52.490;13.410;2023-11-19T14:55:36;20.23;;;4.60;;
19255;SDS011;9762;52.490;13.410;2023-11-19T14:58:03;16.67;;;4.93;;
19255;SDS011;9762;52.490;13.410;2023-11-19T15:00:28;23.33;;;5.33;;
19255;SDS011;9762;52.490;13.410;2023-11-19T15:02:54;21.53;;;5.13;;
19255;SDS011;9762;52.490;13.410;2023-11-19T15:05:21;18.13;;;5.47;;
19255;SDS011;9762;52.490;13.410;2023-11-19T15:07:46;13.23;;;4.80;;
19255;SDS011;9762;52.490;13.410;2023-11-19T15:10:13;20.63;;;5.27;;